sensor_id;sensor_type;location;lat;lon;timestamp;pressure;altitude;pressure_sealevel;temperature;humidity
35892;BME280;21993;42.672;23.296;2024-02-21T00:01:56;95381.06;;;8.30;67.41
35892;BME280;21993;42.672;23.296;2024-02-21T00:04:21;95367.16;;;8.29;67.62
35892;BME280;21993;42.672;23.296;2024-02-21T00:06:46;95368.22;;;8.27;67.44
35892;BME280;21993;42.672;23.296;2024-02-21T00:09:12;95374.59;;;8.23;66.61
35892;BME280;21993;42.672;23.296;2024-02-21T00:11:37;95367.88;;;8.31;67.37
35892;BME280;21993;42.672;23.296;2024-02-21T00:14:03;95369.91;;;8.28;66.70
35892;BME280;21993;42.672;23.296;2024-02-21T00:16:28;95371.34;;;8.32;66.77
35892;BME280;21993;42.672;23.296;2024-02-21T00:18:54;95357.75;;;8.27;66.97
35892;BME280;21993;42.672;23.296;2024-02-21T00:21:20;95361.44;;;8.37;67.04
35892;BME280;21993;42.672;23.296;2024-02-21T00:23:46;95356.22;;;8.37;66.36
35892;BME280;21993;42.672;23.296;2024-02-21T00:26:14;95362.03;;;8.28;66.96
35892;BME280;21993;42.672;23.296;2024-02-21T00:28:40;95364.44;;;8.31;67.16
35892;BME280;21993;42.672;23.296;2024-02-21T00:31:05;95366.34;;;8.29;66.65
35892;BME280;21993;42.672;23.296;2024-02-21T00:33:31;95365.09;;;8.34;66.37
35892;BME280;21993;42.672;23.296;2024-02-21T00:35:56;95358.72;;;8.26;66.62
35892;BME280;21993;42.672;23.296;2024-02-21T00:38:22;95361.22;;;8.27;67.17
35892;BME280;21993;42.672;23.296;2024-02-21T00:40:47;95359.72;;;8.23;66.73
35892;BME280;21993;42.672;23.296;2024-02-21T00:43:13;95351.38;;;8.05;67.39
35892;BME280;21993;42.672;23.296;2024-02-21T00:45:39;95357.88;;;8.12;66.85
35892;BME280;21993;42.672;23.296;2024-02-21T00:48:05;95352.94;;;8.21;67.29
35892;BME280;21993;42.672;23.296;2024-02-21T00:50:30;95353.78;;;8.21;67.49
35892;BME280;21993;42.672;23.296;2024-02-21T00:52:56;95351.59;;;8.28;67.50
35892;BME280;21993;42.672;23.296;2024-02-21T00:55:21;95350.63;;;8.29;66.27
35892;BME280;21993;42.672;23.296;2024-02-21T00:57:47;95348.25;;;8.26;67.20
35892;BME280;21993;42.672;23.296;2024-02-21T01:00:13;95337.25;;;8.21;67.22
35892;BME280;21993;42.672;23.296;2024-02-21T01:02:38;95332.13;;;8.19;68.15
35892;BME280;21993;42.672;23.296;2024-02-21T01:05:04;95333.09;;;8.18;67.38
35892;BME280;21993;42.672;23.296;2024-02-21T01:07:29;95336.66;;;8.17;66.77
35892;BME280;21993;42.672;23.296;2024-02-21T01:09:55;95333.28;;;8.28;67.50
35892;BME280;21993;42.672;23.296;2024-02-21T01:12:20;95332.34;;;8.16;67.77
35892;BME280;21993;42.672;23.296;2024-02-21T01:14:46;95322.81;;;8.15;67.23
35892;BME280;21993;42.672;23.296;2024-02-21T01:17:12;95332.03;;;8.21;67.94
35892;BME280;21993;42.672;23.296;2024-02-21T01:19:37;95324.59;;;8.14;67.42
35892;BME280;21993;42.672;23.296;2024-02-21T01:22:04;95319.28;;;8.16;67.33
35892;BME280;21993;42.672;23.296;2024-02-21T01:24:29;95316.13;;;8.11;67.89
35892;BME280;21993;42.672;23.296;2024-02-21T01:26:55;95323.97;;;8.11;67.68
35892;BME280;21993;42.672;23.296;2024-02-21T01:29:20;95319.38;;;8.14;67.11
35892;BME280;21993;42.672;23.296;2024-02-21T01:31:46;95313.81;;;8.19;66.87
35892;BME280;21993;42.672;23.296;2024-02-21T01:34:12;95314.88;;;8.16;66.92
35892;BME280;21993;42.672;23.296;2024-02-21T01:36:38;95310.56;;;8.15;67.34
35892;BME280;21993;42.672;23.296;2024-02-21T01:39:03;95309.44;;;8.19;66.59
35892;BME280;21993;42.672;23.296;2024-02-21T01:41:32;95304.31;;;8.18;66.87
35892;BME280;21993;42.672;23.296;2024-02-21T01:43:58;95306.94;;;8.18;66.63
35892;BME280;21993;42.672;23.296;2024-02-21T01:46:24;95308.19;;;8.12;66.24
35892;BME280;21993;42.672;23.296;2024-02-21T01:48:55;95299.81;;;8.20;66.63
35892;BME280;21993;42.672;23.296;2024-02-21T01:51:21;95312.56;;;8.25;66.06
35892;BME280;21993;42.672;23.296;2024-02-21T01:53:46;95294.81;;;8.17;66.56
35892;BME280;21993;42.672;23.296;2024-02-21T01:56:12;95307.66;;;8.20;66.83
35892;BME280;21993;42.672;23.296;2024-02-21T01:58:40;95294.81;;;8.17;66.96
35892;BME280;21993;42.672;23.296;2024-02-21T02:01:07;95292.72;;;8.09;65.82
35892;BME280;21993;42.672;23.296;2024-02-21T02:03:33;95302.44;;;8.07;66.61
35892;BME280;21993;42.672;23.296;2024-02-21T02:05:59;95297.59;;;8.14;66.24
35892;BME280;21993;42.672;23.296;2024-02-21T02:08:25;95300.22;;;8.14;66.13
35892;BME280;21993;42.672;23.296;2024-02-21T02:10:51;95301.91;;;8.15;65.20
35892;BME280;21993;42.672;23.296;2024-02-21T02:13:17;95301.69;;;8.18;65.65
35892;BME280;21993;42.672;23.296;2024-02-21T02:18:08;95284.72;;;8.24;65.79
35892;BME280;21993;42.672;23.296;2024-02-21T02:20:35;95283.16;;;8.21;65.94
35892;BME280;21993;42.672;23.296;2024-02-21T02:25:30;95285.38;;;8.27;65.39
35892;BME280;21993;42.672;23.296;2024-02-21T02:27:56;95286.81;;;8.31;65.55
35892;BME280;21993;42.672;23.296;2024-02-21T02:30:21;95279.31;;;8.27;65.33
35892;BME280;21993;42.672;23.296;2024-02-21T02:32:47;95284.94;;;8.21;65.43
35892;BME280;21993;42.672;23.296;2024-02-21T02:35:13;95274.25;;;8.24;65.35
35892;BME280;21993;42.672;23.296;2024-02-21T02:37:38;95277.09;;;8.21;65.70
35892;BME280;21993;42.672;23.296;2024-02-21T02:40:06;95275.84;;;8.26;65.55
35892;BME280;21993;42.672;23.296;2024-02-21T02:42:32;95270.63;;;8.26;65.58
35892;BME280;21993;42.672;23.296;2024-02-21T02:44:59;95273.25;;;8.26;66.17
35892;BME280;21993;42.672;23.296;2024-02-21T02:47:24;95276.69;;;8.27;64.59
35892;BME280;21993;42.672;23.296;2024-02-21T02:49:50;95278.34;;;8.28;65.25
35892;BME280;21993;42.672;23.296;2024-02-21T02:52:17;95273.97;;;8.28;65.54
35892;BME280;21993;42.672;23.296;2024-02-21T02:54:43;95283.34;;;8.31;65.52
35892;BME280;21993;42.672;23.296;2024-02-21T02:57:09;95283.59;;;8.28;65.24
35892;BME280;21993;42.672;23.296;2024-02-21T02:59:35;95286.31;;;8.26;65.45
35892;BME280;21993;42.672;23.296;2024-02-21T03:02:00;95280.97;;;8.28;64.98
35892;BME280;21993;42.672;23.296;2024-02-21T03:04:26;95278.34;;;8.28;65.42
35892;BME280;21993;42.672;23.296;2024-02-21T03:06:51;95276.69;;;8.27;65.19
35892;BME280;21993;42.672;23.296;2024-02-21T03:09:17;95284.00;;;8.22;64.91
35892;BME280;21993;42.672;23.296;2024-02-21T03:11:43;95281.91;;;8.27;65.22
35892;BME280;21993;42.672;23.296;2024-02-21T03:14:09;95280.84;;;8.29;64.82
35892;BME280;21993;42.672;23.296;2024-02-21T03:16:35;95298.66;;;8.24;65.06
35892;BME280;21993;42.672;23.296;2024-02-21T03:19:00;95286.91;;;8.30;64.61
35892;BME280;21993;42.672;23.296;2024-02-21T03:21:26;95296.44;;;8.31;65.11
35892;BME280;21993;42.672;23.296;2024-02-21T03:23:51;95308.56;;;8.32;65.44
35892;BME280;21993;42.672;23.296;2024-02-21T03:26:17;95306.59;;;8.23;65.22
35892;BME280;21993;42.672;23.296;2024-02-21T03:28:43;95299.19;;;8.16;64.98
35892;BME280;21993;42.672;23.296;2024-02-21T03:31:11;95300.75;;;8.19;65.99
35892;BME280;21993;42.672;23.296;2024-02-21T03:33:37;95296.34;;;8.19;65.53
35892;BME280;21993;42.672;23.296;2024-02-21T03:36:03;95306.81;;;8.19;66.31
35892;BME280;21993;42.672;23.296;2024-02-21T03:38:29;95298.03;;;8.21;64.89
35892;BME280;21993;42.672;23.296;2024-02-21T03:40:54;95300.22;;;8.27;65.19
35892;BME280;21993;42.672;23.296;2024-02-21T03:43:20;95310.03;;;8.23;64.97
35892;BME280;21993;42.672;23.296;2024-02-21T03:45:45;95314.66;;;8.19;65.76
35892;BME280;21993;42.672;23.296;2024-02-21T03:48:11;95317.69;;;8.13;65.62
35892;BME280;21993;42.672;23.296;2024-02-21T03:50:36;95314.25;;;8.13;65.60
35892;BME280;21993;42.672;23.296;2024-02-21T03:53:02;95315.31;;;8.10;65.34
35892;BME280;21993;42.672;23.296;2024-02-21T03:55:27;95313.53;;;8.11;65.26
35892;BME280;21993;42.672;23.296;2024-02-21T03:57:53;95310.06;;;8.10;65.45
35892;BME280;21993;42.672;23.296;2024-02-21T04:00:18;95307.25;;;8.13;65.79
35892;BME280;21993;42.672;23.296;2024-02-21T04:02:44;95314.97;;;8.15;65.85
35892;BME280;21993;42.672;23.296;2024-02-21T04:05:09;95317.41;;;8.18;65.66
35892;BME280;21993;42.672;23.296;2024-02-21T04:07:38;95316.66;;;8.16;66.39
35892;BME280;21993;42.672;23.296;2024-02-21T04:10:04;95304.50;;;8.15;66.07
35892;BME280;21993;42.672;23.296;2024-02-21T04:12:29;95312.56;;;8.12;65.24
35892;BME280;21993;42.672;23.296;2024-02-21T04:14:55;95309.00;;;8.13;65.96
35892;BME280;21993;42.672;23.296;2024-02-21T04:17:20;95311.03;;;8.09;65.11
35892;BME280;21993;42.672;23.296;2024-02-21T04:19:46;95309.34;;;8.08;65.71
35892;BME280;21993;42.672;23.296;2024-02-21T04:22:11;95308.59;;;8.06;65.78
35892;BME280;21993;42.672;23.296;2024-02-21T04:24:36;95313.75;;;8.08;66.09
35892;BME280;21993;42.672;23.296;2024-02-21T04:27:02;95302.44;;;8.07;65.93
35892;BME280;21993;42.672;23.296;2024-02-21T04:29:28;95310.38;;;8.06;65.44
35892;BME280;21993;42.672;23.296;2024-02-21T04:31:53;95309.44;;;8.07;66.38
35892;BME280;21993;42.672;23.296;2024-02-21T04:34:19;95309.53;;;8.05;66.17
35892;BME280;21993;42.672;23.296;2024-02-21T04:36:45;95307.16;;;8.02;65.89
35892;BME280;21993;42.672;23.296;2024-02-21T04:39:10;95311.53;;;8.02;65.70
35892;BME280;21993;42.672;23.296;2024-02-21T04:41:36;95313.75;;;8.08;66.19
35892;BME280;21993;42.672;23.296;2024-02-21T04:44:02;95313.22;;;8.03;65.94
35892;BME280;21993;42.672;23.296;2024-02-21T04:46:29;95312.59;;;7.99;65.57
35892;BME280;21993;42.672;23.296;2024-02-21T04:48:54;95316.97;;;7.99;65.92
35892;BME280;21993;42.672;23.296;2024-02-21T04:51:21;95317.06;;;7.97;66.73
35892;BME280;21993;42.672;23.296;2024-02-21T04:53:46;95311.13;;;7.95;66.06
35892;BME280;21993;42.672;23.296;2024-02-21T04:56:12;95318.44;;;7.90;66.01
35892;BME280;21993;42.672;23.296;2024-02-21T04:58:38;95317.59;;;7.89;65.84
35892;BME280;21993;42.672;23.296;2024-02-21T05:01:04;95316.03;;;7.87;66.06
35892;BME280;21993;42.672;23.296;2024-02-21T05:03:30;95304.31;;;7.80;66.26
35892;BME280;21993;42.672;23.296;2024-02-21T05:05:56;95306.00;;;7.81;66.91
35892;BME280;21993;42.672;23.296;2024-02-21T05:08:22;95311.53;;;7.76;66.83
35892;BME280;21993;42.672;23.296;2024-02-21T05:10:47;95315.28;;;7.72;66.61
35892;BME280;21993;42.672;23.296;2024-02-21T05:13:13;95322.09;;;7.75;66.85
35892;BME280;21993;42.672;23.296;2024-02-21T05:15:38;95316.34;;;7.70;66.23
35892;BME280;21993;42.672;23.296;2024-02-21T05:18:04;95331.72;;;7.74;67.04
35892;BME280;21993;42.672;23.296;2024-02-21T05:20:29;95321.34;;;7.73;66.76
35892;BME280;21993;42.672;23.296;2024-02-21T05:22:55;95330.97;;;7.72;66.09
35892;BME280;21993;42.672;23.296;2024-02-21T05:25:21;95325.00;;;7.70;66.33
35892;BME280;21993;42.672;23.296;2024-02-21T05:27:46;95325.22;;;7.67;65.69
35892;BME280;21993;42.672;23.296;2024-02-21T05:30:12;95328.56;;;7.69;66.24
35892;BME280;21993;42.672;23.296;2024-02-21T05:32:37;95327.72;;;7.69;66.40
35892;BME280;21993;42.672;23.296;2024-02-21T05:35:03;95335.56;;;7.69;66.13
35892;BME280;21993;42.672;23.296;2024-02-21T05:37:28;95326.69;;;7.71;65.79
35892;BME280;21993;42.672;23.296;2024-02-21T05:39:54;95329.41;;;7.70;66.45
35892;BME280;21993;42.672;23.296;2024-02-21T05:42:19;95332.56;;;7.75;65.19
35892;BME280;21993;42.672;23.296;2024-02-21T05:44:45;95326.38;;;7.76;65.63
35892;BME280;21993;42.672;23.296;2024-02-21T05:47:10;95334.13;;;7.77;65.86
35892;BME280;21993;42.672;23.296;2024-02-21T05:49:37;95334.53;;;7.84;65.55
35892;BME280;21993;42.672;23.296;2024-02-21T05:52:04;95331.09;;;7.83;65.28
35892;BME280;21993;42.672;23.296;2024-02-21T05:54:31;95341.34;;;7.86;65.97
35892;BME280;21993;42.672;23.296;2024-02-21T05:56:56;95348.97;;;7.89;65.10
35892;BME280;21993;42.672;23.296;2024-02-21T05:59:22;95342.38;;;7.84;64.87
35892;BME280;21993;42.672;23.296;2024-02-21T06:01:57;95347.94;;;7.92;65.22
35892;BME280;21993;42.672;23.296;2024-02-21T06:04:23;95349.91;;;7.88;64.64
35892;BME280;21993;42.672;23.296;2024-02-21T06:06:49;95347.00;;;7.93;65.10
35892;BME280;21993;42.672;23.296;2024-02-21T06:09:15;95350.88;;;8.00;64.83
35892;BME280;21993;42.672;23.296;2024-02-21T06:11:40;95358.38;;;8.05;64.67
35892;BME280;21993;42.672;23.296;2024-02-21T06:14:06;95356.94;;;8.01;64.78
35892;BME280;21993;42.672;23.296;2024-02-21T06:16:31;95353.81;;;8.08;64.23
35892;BME280;21993;42.672;23.296;2024-02-21T06:19:00;95354.63;;;8.09;63.54
35892;BME280;21993;42.672;23.296;2024-02-21T06:21:29;95355.88;;;8.16;64.26
35892;BME280;21993;42.672;23.296;2024-02-21T06:23:54;95359.84;;;8.22;63.37
35892;BME280;21993;42.672;23.296;2024-02-21T06:26:20;95360.56;;;8.24;63.36
35892;BME280;21993;42.672;23.296;2024-02-21T06:28:45;95361.09;;;8.29;64.05
35892;BME280;21993;42.672;23.296;2024-02-21T06:31:12;95365.94;;;8.35;64.05
35892;BME280;21993;42.672;23.296;2024-02-21T06:33:37;95363.13;;;8.38;63.30
35892;BME280;21993;42.672;23.296;2024-02-21T06:36:03;95363.84;;;8.40;62.82
35892;BME280;21993;42.672;23.296;2024-02-21T06:38:29;95363.63;;;8.43;63.95
35892;BME280;21993;42.672;23.296;2024-02-21T06:40:54;95373.66;;;8.49;62.83
35892;BME280;21993;42.672;23.296;2024-02-21T06:43:20;95382.38;;;8.50;62.75
35892;BME280;21993;42.672;23.296;2024-02-21T06:45:45;95376.28;;;8.49;62.89
35892;BME280;21993;42.672;23.296;2024-02-21T06:48:15;95382.44;;;8.48;63.04
35892;BME280;21993;42.672;23.296;2024-02-21T06:50:41;95384.34;;;8.59;63.68
35892;BME280;21993;42.672;23.296;2024-02-21T06:53:06;95392.38;;;8.68;62.08
35892;BME280;21993;42.672;23.296;2024-02-21T06:55:32;95386.94;;;8.71;63.00
35892;BME280;21993;42.672;23.296;2024-02-21T06:57:57;95387.75;;;8.72;63.55
35892;BME280;21993;42.672;23.296;2024-02-21T07:00:23;95385.97;;;8.85;62.93
35892;BME280;21993;42.672;23.296;2024-02-21T07:02:49;95383.75;;;8.92;62.78
35892;BME280;21993;42.672;23.296;2024-02-21T07:05:14;95386.16;;;8.95;62.43
35892;BME280;21993;42.672;23.296;2024-02-21T07:07:41;95392.81;;;8.99;62.23
35892;BME280;21993;42.672;23.296;2024-02-21T07:10:07;95385.16;;;9.09;61.69
35892;BME280;21993;42.672;23.296;2024-02-21T07:12:33;95382.63;;;9.07;61.52
35892;BME280;21993;42.672;23.296;2024-02-21T07:15:00;95388.63;;;9.09;62.13
35892;BME280;21993;42.672;23.296;2024-02-21T07:17:25;95390.78;;;9.15;62.40
35892;BME280;21993;42.672;23.296;2024-02-21T07:19:51;95384.41;;;9.19;61.30
35892;BME280;21993;42.672;23.296;2024-02-21T07:22:16;95389.19;;;9.25;61.35
35892;BME280;21993;42.672;23.296;2024-02-21T07:24:42;95388.69;;;9.20;61.81
35892;BME280;21993;42.672;23.296;2024-02-21T07:27:07;95397.69;;;9.16;61.42
35892;BME280;21993;42.672;23.296;2024-02-21T07:29:33;95399.38;;;9.17;62.20
35892;BME280;21993;42.672;23.296;2024-02-21T07:31:58;95393.91;;;9.20;62.69
35892;BME280;21993;42.672;23.296;2024-02-21T07:34:24;95391.31;;;9.20;62.58
35892;BME280;21993;42.672;23.296;2024-02-21T07:36:49;95397.25;;;9.22;62.58
35892;BME280;21993;42.672;23.296;2024-02-21T07:39:15;95396.00;;;9.28;61.79
35892;BME280;21993;42.672;23.296;2024-02-21T07:41:41;95396.47;;;9.33;61.88
35892;BME280;21993;42.672;23.296;2024-02-21T07:44:10;95387.22;;;9.40;61.98
35892;BME280;21993;42.672;23.296;2024-02-21T07:46:35;95388.63;;;9.33;61.05
35892;BME280;21993;42.672;23.296;2024-02-21T07:49:01;95385.56;;;9.39;61.42
35892;BME280;21993;42.672;23.296;2024-02-21T07:51:28;95392.16;;;9.45;61.78
35892;BME280;21993;42.672;23.296;2024-02-21T07:53:53;95387.66;;;9.58;60.86
35892;BME280;21993;42.672;23.296;2024-02-21T07:56:19;95382.69;;;9.66;60.40
35892;BME280;21993;42.672;23.296;2024-02-21T07:58:44;95384.28;;;9.69;60.11
35892;BME280;21993;42.672;23.296;2024-02-21T08:01:10;95385.69;;;9.73;60.12
35892;BME280;21993;42.672;23.296;2024-02-21T08:03:36;95383.06;;;9.73;60.59
35892;BME280;21993;42.672;23.296;2024-02-21T08:06:02;95381.81;;;9.78;60.41
35892;BME280;21993;42.672;23.296;2024-02-21T08:08:28;95380.41;;;9.85;60.04
35892;BME280;21993;42.672;23.296;2024-02-21T08:10:54;95381.81;;;9.78;59.89
35892;BME280;21993;42.672;23.296;2024-02-21T08:13:19;95381.22;;;9.86;59.90
35892;BME280;21993;42.672;23.296;2024-02-21T08:15:45;95383.19;;;10.06;59.50
35892;BME280;21993;42.672;23.296;2024-02-21T08:18:10;95386.25;;;10.00;59.62
35892;BME280;21993;42.672;23.296;2024-02-21T08:20:36;95382.22;;;10.07;59.62
35892;BME280;21993;42.672;23.296;2024-02-21T08:23:01;95380.69;;;10.16;59.38
35892;BME280;21993;42.672;23.296;2024-02-21T08:25:27;95384.09;;;10.29;58.99
35892;BME280;21993;42.672;23.296;2024-02-21T08:27:58;95374.09;;;10.46;58.43
35892;BME280;21993;42.672;23.296;2024-02-21T08:30:24;95381.97;;;10.57;58.03
35892;BME280;21993;42.672;23.296;2024-02-21T08:32:49;95377.56;;;10.68;57.75
35892;BME280;21993;42.672;23.296;2024-02-21T08:35:15;95381.47;;;10.74;57.01
35892;BME280;21993;42.672;23.296;2024-02-21T08:37:43;95381.81;;;10.92;56.88
35892;BME280;21993;42.672;23.296;2024-02-21T08:40:10;95370.50;;;11.03;56.12
35892;BME280;21993;42.672;23.296;2024-02-21T08:42:36;95376.91;;;11.21;55.13
35892;BME280;21993;42.672;23.296;2024-02-21T08:45:03;95374.00;;;11.35;54.61
35892;BME280;21993;42.672;23.296;2024-02-21T08:47:28;95371.34;;;11.46;53.82
35892;BME280;21993;42.672;23.296;2024-02-21T08:49:54;95378.97;;;11.49;53.67
35892;BME280;21993;42.672;23.296;2024-02-21T08:52:19;95374.41;;;11.51;53.80
35892;BME280;21993;42.672;23.296;2024-02-21T08:54:45;95369.28;;;11.50;53.92
35892;BME280;21993;42.672;23.296;2024-02-21T08:57:10;95382.56;;;11.48;53.98
35892;BME280;21993;42.672;23.296;2024-02-21T08:59:36;95374.03;;;11.56;54.07
35892;BME280;21993;42.672;23.296;2024-02-21T09:02:01;95384.19;;;11.61;53.36
35892;BME280;21993;42.672;23.296;2024-02-21T09:04:28;95384.63;;;11.66;53.55
35892;BME280;21993;42.672;23.296;2024-02-21T09:06:54;95384.47;;;11.78;53.08
35892;BME280;21993;42.672;23.296;2024-02-21T09:09:20;95381.94;;;11.77;52.67
35892;BME280;21993;42.672;23.296;2024-02-21T09:11:45;95384.78;;;11.64;53.81
35892;BME280;21993;42.672;23.296;2024-02-21T09:14:11;95383.06;;;11.74;53.51
35892;BME280;21993;42.672;23.296;2024-02-21T09:16:37;95387.44;;;11.85;53.44
35892;BME280;21993;42.672;23.296;2024-02-21T09:19:02;95386.63;;;11.84;52.76
35892;BME280;21993;42.672;23.296;2024-02-21T09:21:28;95387.44;;;11.85;53.48
35892;BME280;21993;42.672;23.296;2024-02-21T09:23:53;95381.75;;;12.01;53.14
35892;BME280;21993;42.672;23.296;2024-02-21T09:26:19;95377.53;;;12.09;53.21
35892;BME280;21993;42.672;23.296;2024-02-21T09:28:47;95370.97;;;12.46;52.65
35892;BME280;21993;42.672;23.296;2024-02-21T09:31:12;95377.59;;;12.71;52.90
35892;BME280;21993;42.672;23.296;2024-02-21T09:33:38;95378.97;;;13.05;51.91
35892;BME280;21993;42.672;23.296;2024-02-21T09:36:04;95369.63;;;13.32;50.77
35892;BME280;21993;42.672;23.296;2024-02-21T09:38:32;95368.44;;;13.65;50.67
35892;BME280;21993;42.672;23.296;2024-02-21T09:41:17;95371.22;;;13.73;49.44
35892;BME280;21993;42.672;23.296;2024-02-21T09:43:43;95375.34;;;13.95;49.18
35892;BME280;21993;42.672;23.296;2024-02-21T09:46:18;95372.56;;;14.16;48.41
35892;BME280;21993;42.672;23.296;2024-02-21T09:51:39;95366.97;;;14.57;47.30
35892;BME280;21993;42.672;23.296;2024-02-21T09:54:07;95367.34;;;14.72;46.97
35892;BME280;21993;42.672;23.296;2024-02-21T09:56:32;95361.97;;;14.91;46.81
35892;BME280;21993;42.672;23.296;2024-02-21T09:58:58;95370.78;;;15.10;45.94
35892;BME280;21993;42.672;23.296;2024-02-21T10:01:24;95368.03;;;15.02;45.38
35892;BME280;21993;42.672;23.296;2024-02-21T10:03:49;95371.66;;;15.01;45.07
35892;BME280;21993;42.672;23.296;2024-02-21T10:06:15;95361.09;;;15.01;45.40
35892;BME280;21993;42.672;23.296;2024-02-21T10:08:40;95357.59;;;15.00;44.92
35892;BME280;21993;42.672;23.296;2024-02-21T10:11:06;95363.72;;;15.01;45.00
35892;BME280;21993;42.672;23.296;2024-02-21T10:13:34;95355.84;;;15.18;44.56
35892;BME280;21993;42.672;23.296;2024-02-21T10:16:04;95359.22;;;15.11;44.50
35892;BME280;21993;42.672;23.296;2024-02-21T10:18:30;95352.91;;;14.94;44.23
35892;BME280;21993;42.672;23.296;2024-02-21T10:21:07;95350.59;;;14.81;44.54
35892;BME280;21993;42.672;23.296;2024-02-21T10:26:08;95351.19;;;14.75;43.85
35892;BME280;21993;42.672;23.296;2024-02-21T10:28:34;95340.91;;;14.72;44.14
35892;BME280;21993;42.672;23.296;2024-02-21T10:31:00;95327.53;;;14.74;44.34
35892;BME280;21993;42.672;23.296;2024-02-21T10:33:25;95323.63;;;14.78;44.40
35892;BME280;21993;42.672;23.296;2024-02-21T10:35:53;95316.00;;;14.75;44.63
35892;BME280;21993;42.672;23.296;2024-02-21T10:38:19;95318.25;;;14.97;44.09
35892;BME280;21993;42.672;23.296;2024-02-21T10:40:46;95312.41;;;14.93;43.60
35892;BME280;21993;42.672;23.296;2024-02-21T10:43:13;95298.63;;;15.17;43.32
35892;BME280;21993;42.672;23.296;2024-02-21T10:45:41;95288.38;;;15.32;42.56
35892;BME280;21993;42.672;23.296;2024-02-21T10:48:22;95291.94;;;15.41;42.49
35892;BME280;21993;42.672;23.296;2024-02-21T10:51:02;95280.38;;;15.77;41.74
35892;BME280;21993;42.672;23.296;2024-02-21T10:53:36;95268.22;;;16.11;40.89
35892;BME280;21993;42.672;23.296;2024-02-21T10:56:31;95270.03;;;16.36;40.04
35892;BME280;21993;42.672;23.296;2024-02-21T10:59:01;95265.34;;;16.64;38.97
35892;BME280;21993;42.672;23.296;2024-02-21T11:01:28;95257.38;;;16.98;39.17
35892;BME280;21993;42.672;23.296;2024-02-21T11:03:59;95259.47;;;17.29;38.42
35892;BME280;21993;42.672;23.296;2024-02-21T11:06:27;95256.16;;;17.43;38.19
35892;BME280;21993;42.672;23.296;2024-02-21T11:09:03;95241.91;;;17.68;37.74
35892;BME280;21993;42.672;23.296;2024-02-21T11:11:33;95246.22;;;17.69;37.60
35892;BME280;21993;42.672;23.296;2024-02-21T11:14:08;95248.91;;;17.78;37.48
35892;BME280;21993;42.672;23.296;2024-02-21T11:16:41;95251.22;;;17.89;36.90
35892;BME280;21993;42.672;23.296;2024-02-21T11:19:28;95246.41;;;18.00;36.18
35892;BME280;21993;42.672;23.296;2024-02-21T11:21:55;95259.34;;;18.20;35.82
35892;BME280;21993;42.672;23.296;2024-02-21T11:24:40;95247.25;;;18.01;35.73
35892;BME280;21993;42.672;23.296;2024-02-21T11:27:15;95250.75;;;17.85;35.50
35892;BME280;21993;42.672;23.296;2024-02-21T11:29:44;95245.75;;;17.66;35.96
35892;BME280;21993;42.672;23.296;2024-02-21T11:32:10;95242.09;;;17.51;35.94
35892;BME280;21993;42.672;23.296;2024-02-21T11:34:37;95242.72;;;17.36;36.23
35892;BME280;21993;42.672;23.296;2024-02-21T11:37:13;95243.53;;;17.21;36.19
35892;BME280;21993;42.672;23.296;2024-02-21T11:39:41;95241.47;;;16.98;37.06
35892;BME280;21993;42.672;23.296;2024-02-21T11:42:08;95237.81;;;16.83;36.73
35892;BME280;21993;42.672;23.296;2024-02-21T11:44:35;95235.59;;;16.70;36.02
35892;BME280;21993;42.672;23.296;2024-02-21T11:47:03;95240.44;;;16.49;36.58
35892;BME280;21993;42.672;23.296;2024-02-21T11:49:29;95237.59;;;16.42;36.96
35892;BME280;21993;42.672;23.296;2024-02-21T11:51:59;95223.81;;;16.39;37.13
35892;BME280;21993;42.672;23.296;2024-02-21T11:54:26;95220.63;;;16.27;37.58
35892;BME280;21993;42.672;23.296;2024-02-21T11:56:52;95224.44;;;15.98;37.85
35892;BME280;21993;42.672;23.296;2024-02-21T11:59:17;95223.56;;;15.90;38.22
35892;BME280;21993;42.672;23.296;2024-02-21T12:01:44;95235.22;;;15.79;38.54
35892;BME280;21993;42.672;23.296;2024-02-21T12:04:10;95224.41;;;15.55;38.86
35892;BME280;21993;42.672;23.296;2024-02-21T12:06:36;95234.09;;;15.28;39.61
35892;BME280;21993;42.672;23.296;2024-02-21T12:09:01;95224.34;;;15.11;39.80
35892;BME280;21993;42.672;23.296;2024-02-21T12:11:27;95222.53;;;15.11;40.01
35892;BME280;21993;42.672;23.296;2024-02-21T12:14:02;95208.97;;;15.06;40.38
35892;BME280;21993;42.672;23.296;2024-02-21T12:16:29;95215.81;;;14.99;40.68
35892;BME280;21993;42.672;23.296;2024-02-21T12:18:58;95221.03;;;14.91;41.16
35892;BME280;21993;42.672;23.296;2024-02-21T12:21:25;95205.53;;;14.51;41.86
35892;BME280;21993;42.672;23.296;2024-02-21T12:23:53;95219.19;;;14.36;42.15
35892;BME280;21993;42.672;23.296;2024-02-21T12:26:18;95212.72;;;14.31;42.44
35892;BME280;21993;42.672;23.296;2024-02-21T12:28:44;95215.50;;;14.29;42.24
35892;BME280;21993;42.672;23.296;2024-02-21T12:31:10;95210.06;;;14.31;42.38
35892;BME280;21993;42.672;23.296;2024-02-21T12:33:35;95204.94;;;14.20;42.71
35892;BME280;21993;42.672;23.296;2024-02-21T12:36:01;95216.22;;;14.22;42.65
35892;BME280;21993;42.672;23.296;2024-02-21T12:38:26;95216.03;;;13.96;42.59
35892;BME280;21993;42.672;23.296;2024-02-21T12:40:52;95215.63;;;13.91;42.80
35892;BME280;21993;42.672;23.296;2024-02-21T12:43:17;95202.44;;;13.91;42.95
35892;BME280;21993;42.672;23.296;2024-02-21T12:45:43;95204.88;;;13.65;43.01
35892;BME280;21993;42.672;23.296;2024-02-21T12:48:09;95199.41;;;13.76;42.85
35892;BME280;21993;42.672;23.296;2024-02-21T12:50:34;95201.63;;;13.80;42.45
35892;BME280;21993;42.672;23.296;2024-02-21T12:53:00;95203.03;;;13.75;42.83
35892;BME280;21993;42.672;23.296;2024-02-21T12:55:26;95191.22;;;13.69;42.86
35892;BME280;21993;42.672;23.296;2024-02-21T12:57:51;95195.13;;;13.75;42.82
35892;BME280;21993;42.672;23.296;2024-02-21T13:00:17;95189.72;;;13.67;43.03
35892;BME280;21993;42.672;23.296;2024-02-21T13:02:43;95179.13;;;13.76;43.79
35892;BME280;21993;42.672;23.296;2024-02-21T13:05:08;95188.63;;;13.60;45.16